createdAt,value
2022-11-15T00:00:43.005Z,10.90
2022-11-15T00:03:29.146Z,10.88
2022-11-15T00:06:15.056Z,10.86
2022-11-15T00:09:01.505Z,10.84
2022-11-15T00:11:46.761Z,10.81
2022-11-15T00:14:32.344Z,10.79
2022-11-15T00:17:17.563Z,10.73
2022-11-15T00:20:02.953Z,10.73
2022-11-15T00:22:48.252Z,10.66
2022-11-15T00:25:33.945Z,10.70
2022-11-15T00:28:19.461Z,10.67
2022-11-15T00:31:07.842Z,10.66
2022-11-15T00:33:53.112Z,10.64
2022-11-15T00:36:38.526Z,10.61
2022-11-15T00:39:23.760Z,10.62
2022-11-15T00:42:09.083Z,10.59
2022-11-15T00:44:54.271Z,10.56
2022-11-15T00:47:39.609Z,10.50
2022-11-15T00:50:24.927Z,10.50
2022-11-15T00:53:10.896Z,10.47
2022-11-15T00:55:56.519Z,10.45
2022-11-15T00:58:41.847Z,10.41
2022-11-15T01:01:27.290Z,10.33
2022-11-15T01:04:12.554Z,10.30
2022-11-15T01:06:57.989Z,10.27
2022-11-15T01:09:43.943Z,10.24
2022-11-15T01:12:29.299Z,10.23
2022-11-15T01:15:14.726Z,10.22
2022-11-15T01:18:00.021Z,10.17
2022-11-15T01:20:45.247Z,10.17
2022-11-15T01:23:30.995Z,10.13
2022-11-15T01:26:17.697Z,10.11
2022-11-15T01:29:03.448Z,10.08
2022-11-15T01:31:49.024Z,10.06
2022-11-15T01:34:34.339Z,10.04
2022-11-15T01:37:19.611Z,10.00
2022-11-15T01:40:05.348Z,10.01
2022-11-15T01:42:50.894Z,10.02
2022-11-15T01:45:36.286Z,9.99
2022-11-15T01:48:23.329Z,9.97
2022-11-15T01:51:12.292Z,9.89
2022-11-15T01:54:03.939Z,9.92
2022-11-15T01:57:00.910Z,9.92
2022-11-15T01:59:46.673Z,9.90
2022-11-15T02:02:33.536Z,9.88
2022-11-15T02:05:19.183Z,9.87
2022-11-15T02:08:04.900Z,9.85
2022-11-15T02:10:50.344Z,9.84
2022-11-15T02:13:36.622Z,9.81
2022-11-15T02:16:56.718Z,9.78
2022-11-15T02:20:14.785Z,9.76
2022-11-15T02:24:11.878Z,9.71
2022-11-15T02:27:57.151Z,9.67
2022-11-15T02:31:06.128Z,9.62
2022-11-15T02:34:04.067Z,9.62
2022-11-15T02:37:23.046Z,9.58
2022-11-15T02:40:35.612Z,9.54
2022-11-15T02:43:56.275Z,9.53
2022-11-15T02:47:12.202Z,9.47
2022-11-15T02:50:03.029Z,9.44
2022-11-15T02:52:50.599Z,9.47
2022-11-15T02:55:46.694Z,9.43
2022-11-15T02:58:46.534Z,9.41
2022-11-15T03:02:12.083Z,9.38
2022-11-15T03:05:25.010Z,9.36
2022-11-15T03:09:01.587Z,9.34
2022-11-15T03:11:57.602Z,9.34
2022-11-15T03:14:59.247Z,9.31
2022-11-15T03:17:53.358Z,9.29
2022-11-15T03:20:39.659Z,9.29
2022-11-15T03:23:25.974Z,9.27
2022-11-15T03:26:15.756Z,9.26
2022-11-15T03:29:17.248Z,9.25
2022-11-15T03:32:14.970Z,9.25
2022-11-15T03:35:06.593Z,9.25
2022-11-15T03:38:26.262Z,9.24
2022-11-15T03:41:23.463Z,9.23
2022-11-15T03:44:38.078Z,9.20
2022-11-15T03:47:39.867Z,9.19
2022-11-15T03:50:27.475Z,9.17
2022-11-15T03:53:14.564Z,9.16
2022-11-15T03:56:00.099Z,9.16
2022-11-15T03:58:45.436Z,9.08
2022-11-15T04:01:30.776Z,9.14
2022-11-15T04:04:16.399Z,9.11
2022-11-15T04:07:01.707Z,9.11
2022-11-15T04:10:06.342Z,9.10
2022-11-15T04:12:51.919Z,9.05
2022-11-15T04:15:37.683Z,9.04
2022-11-15T04:18:23.596Z,9.02
2022-11-15T04:21:28.323Z,8.99
2022-11-15T04:24:13.976Z,8.96
2022-11-15T04:26:59.456Z,8.94
2022-11-15T04:29:44.745Z,8.94
2022-11-15T04:32:29.923Z,8.94
2022-11-15T04:35:15.315Z,8.90
2022-11-15T04:38:01.521Z,8.90
2022-11-15T04:40:47.982Z,8.87
2022-11-15T04:43:33.809Z,8.86
2022-11-15T04:46:19.298Z,8.85
2022-11-15T04:49:04.602Z,8.85
2022-11-15T04:51:50.046Z,8.83
2022-11-15T04:54:35.359Z,8.83
2022-11-15T04:57:20.774Z,8.82
2022-11-15T05:00:09.641Z,8.80
2022-11-15T05:03:13.877Z,8.77
2022-11-15T05:06:00.159Z,8.75
2022-11-15T05:08:45.571Z,8.72
2022-11-15T05:11:30.948Z,8.70
2022-11-15T05:14:16.714Z,8.69
2022-11-15T05:17:02.201Z,8.68
2022-11-15T05:19:47.489Z,8.66
2022-11-15T05:22:32.814Z,8.65
2022-11-15T05:25:18.114Z,8.59
2022-11-15T05:28:03.591Z,8.63
2022-11-15T05:30:48.925Z,8.62
2022-11-15T05:33:39.758Z,8.62
2022-11-15T05:36:35.890Z,8.59
2022-11-15T05:39:21.335Z,8.59
2022-11-15T05:42:12.214Z,8.57
2022-11-15T05:44:59.133Z,8.55
2022-11-15T05:47:45.785Z,8.51
2022-11-15T05:50:31.587Z,8.51
2022-11-15T05:53:21.664Z,8.49
2022-11-15T05:56:07.714Z,8.48
2022-11-15T05:58:59.539Z,8.42
2022-11-15T06:01:45.526Z,8.42
2022-11-15T06:04:31.317Z,8.39
2022-11-15T06:07:16.668Z,8.39
2022-11-15T06:10:02.557Z,8.40
2022-11-15T06:12:47.961Z,8.36
2022-11-15T06:15:35.276Z,8.38
2022-11-15T06:18:21.034Z,8.39
2022-11-15T06:21:06.899Z,8.38
2022-11-15T06:23:52.530Z,8.39
2022-11-15T06:26:37.886Z,8.42
2022-11-15T06:29:23.160Z,8.43
2022-11-15T06:32:08.644Z,8.43
2022-11-15T06:34:53.964Z,8.42
2022-11-15T06:37:39.193Z,8.42
2022-11-15T06:40:24.489Z,8.42
2022-11-15T06:43:09.830Z,8.41
2022-11-15T06:45:55.151Z,8.40
2022-11-15T06:48:40.474Z,8.42
2022-11-15T06:51:25.740Z,8.42
2022-11-15T06:54:11.028Z,8.43
2022-11-15T06:56:56.317Z,8.38
2022-11-15T06:59:41.693Z,8.39
2022-11-15T07:02:27.264Z,8.38
2022-11-15T07:05:14.464Z,8.35
2022-11-15T07:08:00.761Z,8.32
2022-11-15T07:10:46.291Z,8.37
2022-11-15T07:13:34.693Z,8.38
2022-11-15T07:16:20.508Z,8.40
2022-11-15T07:19:05.823Z,8.42
2022-11-15T07:21:51.073Z,8.43
2022-11-15T07:24:36.428Z,8.44
2022-11-15T07:27:21.869Z,8.46
2022-11-15T07:30:08.301Z,8.53
2022-11-15T07:32:59.100Z,8.56
2022-11-15T07:35:47.396Z,8.60
2022-11-15T07:38:38.022Z,8.63
2022-11-15T07:41:26.554Z,8.65
2022-11-15T07:44:11.765Z,8.63
2022-11-15T07:46:57.105Z,8.70
2022-11-15T07:49:42.425Z,8.63
2022-11-15T07:52:27.583Z,8.75
2022-11-15T07:55:13.248Z,8.79
2022-11-15T07:58:07.428Z,8.83
2022-11-15T08:00:53.171Z,8.87
2022-11-15T08:03:39.071Z,8.92
2022-11-15T08:06:24.597Z,8.87
2022-11-15T08:09:09.906Z,8.95
2022-11-15T08:11:55.307Z,9.04
2022-11-15T08:14:40.776Z,9.08
2022-11-15T08:17:26.475Z,9.15
2022-11-15T08:20:12.106Z,9.21
2022-11-15T08:23:02.017Z,9.26
2022-11-15T08:25:47.658Z,9.33
2022-11-15T08:28:33.481Z,9.27
2022-11-15T08:31:19.793Z,9.39
2022-11-15T08:34:05.849Z,9.48
2022-11-15T08:36:51.341Z,9.52
2022-11-15T08:39:36.563Z,9.55
2022-11-15T08:42:21.709Z,9.58
2022-11-15T08:45:08.339Z,9.65
2022-11-15T08:47:54.603Z,9.70
2022-11-15T08:50:40.364Z,9.74
2022-11-15T08:53:25.572Z,9.82
2022-11-15T08:56:13.177Z,9.89
2022-11-15T08:58:58.898Z,9.96
2022-11-15T09:01:44.330Z,10.04
2022-11-15T09:04:30.048Z,10.08
2022-11-15T09:07:15.779Z,10.14
2022-11-15T09:10:01.447Z,10.22
2022-11-15T09:12:49.299Z,10.29
2022-11-15T09:15:35.070Z,10.38
2022-11-15T09:18:23.228Z,10.49
2022-11-15T09:21:09.793Z,10.57
2022-11-15T09:23:55.326Z,10.63
2022-11-15T09:26:41.358Z,10.69
2022-11-15T09:29:26.659Z,10.75
2022-11-15T09:32:12.001Z,10.82
2022-11-15T09:34:57.811Z,10.88
2022-11-15T09:37:43.515Z,10.94
2022-11-15T09:40:28.889Z,10.99
2022-11-15T09:43:40.848Z,11.04
2022-11-15T09:46:57.394Z,11.12
2022-11-15T09:49:43.321Z,11.17
2022-11-15T09:52:20.077Z,11.24
2022-11-15T09:54:53.829Z,11.23
2022-11-15T09:57:41.052Z,11.30
2022-11-15T10:00:46.341Z,11.36
2022-11-15T10:03:29.565Z,11.42
2022-11-15T10:06:01.909Z,11.50
2022-11-15T10:08:46.685Z,11.57
2022-11-15T10:11:38.990Z,11.61
2022-11-15T10:14:21.362Z,11.65
2022-11-15T10:17:34.620Z,11.72
2022-11-15T10:20:26.180Z,11.79
2022-11-15T10:23:00.671Z,11.86
2022-11-15T10:25:30.812Z,11.92
2022-11-15T10:28:12.344Z,11.94
2022-11-15T10:30:42.900Z,12.02
2022-11-15T10:33:36.233Z,12.08
2022-11-15T10:36:09.627Z,12.17
2022-11-15T10:38:51.786Z,12.20
2022-11-15T10:41:30.975Z,12.26
2022-11-15T10:44:19.144Z,12.32
2022-11-15T10:47:17.240Z,12.35
2022-11-15T10:49:59.830Z,12.38
2022-11-15T10:52:28.017Z,12.42
2022-11-15T10:55:28.456Z,12.44
2022-11-15T10:58:20.284Z,12.47
2022-11-15T11:00:47.584Z,12.54
2022-11-15T11:03:35.879Z,12.58
2022-11-15T11:06:16.788Z,12.62
2022-11-15T11:09:05.606Z,12.67
2022-11-15T11:12:02.943Z,12.70
2022-11-15T11:14:35.926Z,12.72
2022-11-15T11:17:37.788Z,12.79
2022-11-15T11:20:28.195Z,12.78
2022-11-15T11:23:16.945Z,12.78
2022-11-15T11:26:09.496Z,12.77
2022-11-15T11:29:05.550Z,12.81
2022-11-15T11:32:01.028Z,12.86
2022-11-15T11:34:46.962Z,12.92
2022-11-15T11:37:44.455Z,12.95
2022-11-15T11:40:44.500Z,12.98
2022-11-15T11:43:38.053Z,13.04
2022-11-15T11:46:38.730Z,13.06
2022-11-15T11:49:11.458Z,13.05
2022-11-15T11:51:46.967Z,13.01
2022-11-15T11:54:49.693Z,13.01
2022-11-15T11:57:41.121Z,12.98
2022-11-15T12:00:25.116Z,12.97
2022-11-15T12:03:08.374Z,12.95
2022-11-15T12:06:02.895Z,12.96
2022-11-15T12:08:54.854Z,13.01
2022-11-15T12:11:38.271Z,13.04
2022-11-15T12:14:15.729Z,13.05
2022-11-15T12:16:43.919Z,13.05
2022-11-15T12:19:10.841Z,13.07
2022-11-15T12:22:03.679Z,13.10
2022-11-15T12:24:46.500Z,13.13
2022-11-15T12:27:39.373Z,13.15
2022-11-15T12:30:15.427Z,13.11
2022-11-15T12:32:58.301Z,13.22
2022-11-15T12:35:42.631Z,13.23
2022-11-15T12:38:13.872Z,13.22
2022-11-15T12:41:15.760Z,13.26
2022-11-15T12:43:44.855Z,13.18
2022-11-15T12:46:29.675Z,13.10
2022-11-15T12:49:00.579Z,13.03
2022-11-15T12:51:59.899Z,12.91
2022-11-15T12:54:28.193Z,12.86
2022-11-15T12:57:03.773Z,12.84
2022-11-15T12:59:55.754Z,12.84
2022-11-15T13:02:46.300Z,12.77
2022-11-15T13:05:16.414Z,12.79
2022-11-15T13:07:43.161Z,12.78
2022-11-15T13:10:28.508Z,12.79
2022-11-15T13:13:04.989Z,12.77
2022-11-15T13:15:41.142Z,12.73
2022-11-15T13:18:29.474Z,12.64
2022-11-15T13:21:01.984Z,12.58
2022-11-15T13:23:29.474Z,12.52
2022-11-15T13:26:17.621Z,12.54
2022-11-15T13:28:54.273Z,12.54
2022-11-15T13:31:31.702Z,12.52
2022-11-15T13:34:04.109Z,12.49
2022-11-15T13:36:35.373Z,12.48
2022-11-15T13:39:33.778Z,12.47
2022-11-15T13:42:01.195Z,12.46
2022-11-15T13:44:33.998Z,12.45
2022-11-15T13:47:13.931Z,12.41
2022-11-15T13:49:41.560Z,12.39
2022-11-15T13:52:14.949Z,12.33
2022-11-15T13:55:00.639Z,12.26
2022-11-15T13:57:35.151Z,12.24
2022-11-15T14:00:07.563Z,12.27
2022-11-15T14:02:40.403Z,12.26
2022-11-15T14:05:18.907Z,12.26
2022-11-15T14:08:19.009Z,12.23
2022-11-15T14:10:45.873Z,12.26
2022-11-15T14:13:30.578Z,12.28
2022-11-15T14:16:19.727Z,12.26
2022-11-15T14:18:51.852Z,12.28
2022-11-15T14:21:20.898Z,12.29
2022-11-15T14:23:47.884Z,12.32
2022-11-15T14:26:36.028Z,12.33
2022-11-15T14:29:29.134Z,12.26
2022-11-15T14:32:17.827Z,12.32
2022-11-15T14:34:45.145Z,12.31
2022-11-15T14:37:27.984Z,12.25
2022-11-15T14:39:55.859Z,12.22
2022-11-15T14:42:24.330Z,12.08
2022-11-15T14:44:51.867Z,12.12
2022-11-15T14:47:19.248Z,12.07
2022-11-15T14:49:46.749Z,12.07
2022-11-15T14:52:37.279Z,12.04
2022-11-15T14:55:15.234Z,12.00
2022-11-15T14:57:42.152Z,12.03
2022-11-15T15:00:12.499Z,11.99
2022-11-15T15:02:40.564Z,11.91
2022-11-15T15:05:27.063Z,11.87
2022-11-15T15:07:54.231Z,11.83
2022-11-15T15:13:22.880Z,11.67
2022-11-15T15:15:51.987Z,11.61
2022-11-15T15:18:21.016Z,11.56
2022-11-15T15:20:57.277Z,11.56
2022-11-15T15:23:26.456Z,11.59
2022-11-15T15:25:54.091Z,11.61
2022-11-15T15:28:20.998Z,11.61
2022-11-15T15:30:47.948Z,11.62
2022-11-15T15:33:14.845Z,11.62
2022-11-15T15:35:41.719Z,11.61
2022-11-15T15:38:13.113Z,11.58
2022-11-15T15:40:40.088Z,11.53
2022-11-15T15:43:09.894Z,11.57
2022-11-15T15:45:40.250Z,11.55
2022-11-15T15:48:09.044Z,11.55
2022-11-15T15:50:36.383Z,11.54
2022-11-15T15:53:04.918Z,11.48
2022-11-15T15:55:32.519Z,11.46
2022-11-15T15:57:59.655Z,11.45
2022-11-15T16:00:27.217Z,11.41
2022-11-15T16:02:54.885Z,11.34
2022-11-15T16:05:23.099Z,11.32
2022-11-15T16:07:50.212Z,11.34
2022-11-15T16:10:30.309Z,11.34
2022-11-15T16:12:58.634Z,11.37
2022-11-15T16:15:28.394Z,11.38
2022-11-15T16:18:00.929Z,11.38
2022-11-15T16:20:40.455Z,11.39
2022-11-15T16:23:11.620Z,11.39
2022-11-15T16:25:50.793Z,11.38
2022-11-15T16:28:29.971Z,11.40
2022-11-15T16:31:07.065Z,11.41
2022-11-15T16:33:34.418Z,11.41
2022-11-15T16:36:01.966Z,11.43
2022-11-15T16:38:28.991Z,11.43
2022-11-15T16:40:55.933Z,11.42
2022-11-15T16:43:22.954Z,11.44
2022-11-15T16:45:51.459Z,11.45
2022-11-15T16:48:27.210Z,11.48
2022-11-15T16:50:59.058Z,11.49
2022-11-15T16:53:27.599Z,11.53
2022-11-15T16:55:55.739Z,11.52
2022-11-15T16:58:22.756Z,11.48
2022-11-15T17:00:54.748Z,11.44
2022-11-15T17:03:25.556Z,11.48
2022-11-15T17:05:52.753Z,11.45
2022-11-15T17:08:21.740Z,11.43
2022-11-15T17:10:48.782Z,11.37
2022-11-15T17:13:15.830Z,11.43
2022-11-15T17:15:42.709Z,11.39
2022-11-15T17:18:14.086Z,11.38
2022-11-15T17:20:41.830Z,11.37
2022-11-15T17:23:14.568Z,11.30
2022-11-15T17:25:41.836Z,11.34
2022-11-15T17:28:08.779Z,11.33
2022-11-15T17:30:35.743Z,11.30
2022-11-15T17:33:02.688Z,11.32
2022-11-15T17:35:29.562Z,11.35
2022-11-15T17:37:56.434Z,11.32
2022-11-15T17:40:23.327Z,11.27
2022-11-15T17:42:50.272Z,11.24
2022-11-15T17:45:17.421Z,11.22
2022-11-15T17:47:44.362Z,11.23
2022-11-15T17:50:11.632Z,11.26
2022-11-15T17:52:38.540Z,11.30
2022-11-15T17:55:05.835Z,11.32
2022-11-15T17:57:32.729Z,11.33
2022-11-15T17:59:59.635Z,11.35
2022-11-15T18:02:26.561Z,11.37
2022-11-15T18:04:53.436Z,11.34
2022-11-15T18:07:20.329Z,11.40
2022-11-15T18:09:47.212Z,11.29
2022-11-15T18:12:14.099Z,11.34
2022-11-15T18:14:41.017Z,11.31
2022-11-15T18:17:07.884Z,11.34
2022-11-15T18:19:34.852Z,11.38
2022-11-15T18:22:04.341Z,11.43
2022-11-15T18:24:34.922Z,11.48
2022-11-15T18:27:04.426Z,11.50
2022-11-15T18:29:33.288Z,11.51
2022-11-15T18:32:00.318Z,11.52
2022-11-15T18:34:31.932Z,11.50
2022-11-15T18:36:59.466Z,11.46
2022-11-15T18:39:26.395Z,11.43
2022-11-15T18:41:53.523Z,11.39
2022-11-15T18:44:20.418Z,11.35
2022-11-15T18:46:47.330Z,11.27
2022-11-15T18:49:16.677Z,11.19
2022-11-15T18:51:43.731Z,11.18
2022-11-15T18:54:14.174Z,11.18
2022-11-15T18:56:44.547Z,11.21
2022-11-15T18:59:11.439Z,11.21
2022-11-15T19:01:40.964Z,11.20
2022-11-15T19:04:18.392Z,11.21
2022-11-15T19:06:50.269Z,11.22
2022-11-15T19:09:19.205Z,11.21
2022-11-15T19:11:48.135Z,11.21
2022-11-15T19:14:19.016Z,11.21
2022-11-15T19:16:52.244Z,11.24
2022-11-15T19:19:25.922Z,11.26
2022-11-15T19:21:53.423Z,11.26
2022-11-15T19:24:20.726Z,11.23
2022-11-15T19:26:47.729Z,11.21
2022-11-15T19:29:15.053Z,11.21
2022-11-15T19:31:42.225Z,11.22
2022-11-15T19:34:09.394Z,11.18
2022-11-15T19:36:42.008Z,11.19
2022-11-15T19:39:12.976Z,11.15
2022-11-15T19:41:42.711Z,11.10
2022-11-15T19:44:11.551Z,11.12
2022-11-15T19:46:39.300Z,11.11
2022-11-15T19:49:08.027Z,11.12
2022-11-15T19:51:34.971Z,11.06
2022-11-15T19:54:06.150Z,11.01
2022-11-15T19:56:34.471Z,11.01
2022-11-15T19:59:02.192Z,10.99
2022-11-15T20:01:32.796Z,10.92
2022-11-15T20:04:00.323Z,10.90
2022-11-15T20:06:31.078Z,10.85
2022-11-15T20:08:58.790Z,10.79
2022-11-15T20:11:26.136Z,10.78
2022-11-15T20:14:02.048Z,10.77
2022-11-15T20:16:29.467Z,10.74
2022-11-15T20:18:56.385Z,10.73
2022-11-15T20:21:23.507Z,10.59
2022-11-15T20:23:51.663Z,10.75
2022-11-15T20:26:19.842Z,10.72
2022-11-15T20:28:48.169Z,10.78
2022-11-15T20:31:16.558Z,10.82
2022-11-15T20:33:43.685Z,10.85
2022-11-15T20:36:14.339Z,10.87
2022-11-15T20:38:41.326Z,10.90
2022-11-15T20:41:08.782Z,10.88
2022-11-15T20:43:35.756Z,10.88
2022-11-15T20:46:02.743Z,10.82
2022-11-15T20:48:31.289Z,10.81
2022-11-15T20:51:12.127Z,10.84
2022-11-15T20:53:39.036Z,10.83
2022-11-15T20:56:16.887Z,10.91
2022-11-15T20:58:45.435Z,10.89
2022-11-15T21:01:15.106Z,10.86
2022-11-15T21:03:42.544Z,10.83
2022-11-15T21:06:11.178Z,10.82
2022-11-15T21:08:57.375Z,10.83
2022-11-15T21:11:43.324Z,10.81
2022-11-15T21:14:10.225Z,10.74
2022-11-15T21:16:38.749Z,10.74
2022-11-15T21:19:06.643Z,10.78
2022-11-15T21:21:35.337Z,10.82
2022-11-15T21:24:08.159Z,10.82
2022-11-15T21:26:36.183Z,10.86
2022-11-15T21:29:03.597Z,10.87
2022-11-15T21:31:31.900Z,10.94
2022-11-15T21:34:02.331Z,10.97
2022-11-15T21:36:29.409Z,11.00
2022-11-15T21:38:56.277Z,11.06
2022-11-15T21:41:23.159Z,11.05
2022-11-15T21:43:50.066Z,11.06
2022-11-15T21:46:17.437Z,11.08
2022-11-15T21:48:44.320Z,11.09
2022-11-15T21:51:13.225Z,11.07
2022-11-15T21:53:40.374Z,11.03
2022-11-15T21:56:07.994Z,11.06
2022-11-15T21:58:36.167Z,11.08
2022-11-15T22:01:22.249Z,11.10
2022-11-15T22:03:49.187Z,11.12
2022-11-15T22:06:18.233Z,11.15
2022-11-15T22:08:46.560Z,11.13
2022-11-15T22:11:14.711Z,11.11
2022-11-15T22:13:42.395Z,11.14
2022-11-15T22:16:10.080Z,11.14
2022-11-15T22:18:37.913Z,11.14
2022-11-15T22:21:11.103Z,11.15
2022-11-15T22:23:38.391Z,11.15
2022-11-15T22:26:06.473Z,11.18
2022-11-15T22:28:33.893Z,11.18
2022-11-15T22:31:01.010Z,11.19
2022-11-15T22:33:33.283Z,11.17
2022-11-15T22:36:01.220Z,11.17
2022-11-15T22:38:28.939Z,11.17
2022-11-15T22:40:56.233Z,11.17
2022-11-15T22:43:26.087Z,11.18
2022-11-15T22:45:57.534Z,11.19
2022-11-15T22:48:28.656Z,11.19
2022-11-15T22:50:56.136Z,11.15
2022-11-15T22:53:23.674Z,11.18
2022-11-15T22:55:56.179Z,11.19
2022-11-15T22:58:25.741Z,11.17
2022-11-15T23:00:56.218Z,11.15
2022-11-15T23:03:24.349Z,11.15
2022-11-15T23:05:51.675Z,11.14
2022-11-15T23:08:19.234Z,11.13
2022-11-15T23:11:05.271Z,11.12
2022-11-15T23:13:33.280Z,11.10
2022-11-15T23:16:22.845Z,11.12
2022-11-15T23:18:52.536Z,11.15
2022-11-15T23:21:44.356Z,11.18
2022-11-15T23:24:13.567Z,11.22
2022-11-15T23:26:41.388Z,11.25
2022-11-15T23:29:10.408Z,11.28
2022-11-15T23:32:01.466Z,11.28
2022-11-15T23:34:31.101Z,11.23
2022-11-15T23:36:59.130Z,11.20
2022-11-15T23:39:26.031Z,11.21
2022-11-15T23:41:52.912Z,11.26
2022-11-15T23:44:19.851Z,11.29
2022-11-15T23:46:46.897Z,11.30
2022-11-15T23:49:13.891Z,11.32
2022-11-15T23:51:40.755Z,11.34
2022-11-15T23:54:07.988Z,11.35
2022-11-15T23:56:35.419Z,11.36
2022-11-15T23:59:02.370Z,11.30
